sensor_id;sensor_type;location;lat;lon;timestamp;P1;P2;P0
70915;PMS5003;58557;50.982;-3.222;2022-12-16T00:01:54;55;45;
70915;PMS5003;58557;50.982;-3.222;2022-12-16T00:04:19;57;50;
70915;PMS5003;58557;50.982;-3.222;2022-12-16T00:06:45;45;40;
70915;PMS5003;58557;50.982;-3.222;2022-12-16T00:09:10;50;39;
70915;PMS5003;58557;50.982;-3.222;2022-12-16T00:11:35;44;37;
70915;PMS5003;58557;50.982;-3.222;2022-12-16T00:14:01;57;43;
70915;PMS5003;58557;50.982;-3.222;2022-12-16T00:16:26;51;44;
70915;PMS5003;58557;50.982;-3.222;2022-12-16T00:18:51;43;35;
70915;PMS5003;58557;50.982;-3.222;2022-12-16T00:21:18;53;47;
70915;PMS5003;58557;50.982;-3.222;2022-12-16T00:23:43;47;38;
70915;PMS5003;58557;50.982;-3.222;2022-12-16T00:26:09;53;40;
70915;PMS5003;58557;50.982;-3.222;2022-12-16T00:28:34;57;51;
70915;PMS5003;58557;50.982;-3.222;2022-12-16T00:31:00;43;41;
70915;PMS5003;58557;50.982;-3.222;2022-12-16T00:33:25;47;41;
70915;PMS5003;58557;50.982;-3.222;2022-12-16T00:35:51;41;36;
70915;PMS5003;58557;50.982;-3.222;2022-12-16T00:38:15;46;37;
70915;PMS5003;58557;50.982;-3.222;2022-12-16T00:40:41;42;36;
70915;PMS5003;58557;50.982;-3.222;2022-12-16T00:43:06;53;41;
70915;PMS5003;58557;50.982;-3.222;2022-12-16T00:45:32;32;30;
70915;PMS5003;58557;50.982;-3.222;2022-12-16T00:47:57;46;40;
70915;PMS5003;58557;50.982;-3.222;2022-12-16T00:50:23;40;36;
70915;PMS5003;58557;50.982;-3.222;2022-12-16T00:52:48;39;34;
70915;PMS5003;58557;50.982;-3.222;2022-12-16T00:55:14;38;34;
70915;PMS5003;58557;50.982;-3.222;2022-12-16T00:57:39;44;36;
70915;PMS5003;58557;50.982;-3.222;2022-12-16T01:00:05;36;32;
70915;PMS5003;58557;50.982;-3.222;2022-12-16T01:02:31;43;42;
70915;PMS5003;58557;50.982;-3.222;2022-12-16T01:04:56;37;33;
70915;PMS5003;58557;50.982;-3.222;2022-12-16T01:07:22;52;40;
70915;PMS5003;58557;50.982;-3.222;2022-12-16T01:09:47;38;28;
70915;PMS5003;58557;50.982;-3.222;2022-12-16T01:12:12;37;33;
70915;PMS5003;58557;50.982;-3.222;2022-12-16T01:14:38;37;26;
70915;PMS5003;58557;50.982;-3.222;2022-12-16T01:17:03;34;31;
70915;PMS5003;58557;50.982;-3.222;2022-12-16T01:19:29;39;36;
70915;PMS5003;58557;50.982;-3.222;2022-12-16T01:21:54;42;34;
70915;PMS5003;58557;50.982;-3.222;2022-12-16T01:24:20;32;24;
70915;PMS5003;58557;50.982;-3.222;2022-12-16T01:26:46;45;39;
70915;PMS5003;58557;50.982;-3.222;2022-12-16T01:29:11;40;36;
70915;PMS5003;58557;50.982;-3.222;2022-12-16T01:31:36;44;42;
70915;PMS5003;58557;50.982;-3.222;2022-12-16T01:34:01;40;34;
70915;PMS5003;58557;50.982;-3.222;2022-12-16T01:36:27;40;34;
70915;PMS5003;58557;50.982;-3.222;2022-12-16T01:38:53;33;28;
70915;PMS5003;58557;50.982;-3.222;2022-12-16T01:41:18;50;43;
70915;PMS5003;58557;50.982;-3.222;2022-12-16T01:43:43;41;37;
70915;PMS5003;58557;50.982;-3.222;2022-12-16T01:46:12;47;39;
70915;PMS5003;58557;50.982;-3.222;2022-12-16T01:48:36;50;43;
70915;PMS5003;58557;50.982;-3.222;2022-12-16T01:51:00;47;37;
70915;PMS5003;58557;50.982;-3.222;2022-12-16T01:53:25;47;40;
70915;PMS5003;58557;50.982;-3.222;2022-12-16T01:55:51;49;40;
70915;PMS5003;58557;50.982;-3.222;2022-12-16T01:58:17;49;42;
70915;PMS5003;58557;50.982;-3.222;2022-12-16T02:00:42;66;57;
70915;PMS5003;58557;50.982;-3.222;2022-12-16T02:03:07;51;47;
70915;PMS5003;58557;50.982;-3.222;2022-12-16T02:05:33;51;47;
70915;PMS5003;58557;50.982;-3.222;2022-12-16T02:07:59;49;40;
70915;PMS5003;58557;50.982;-3.222;2022-12-16T02:10:25;60;48;
70915;PMS5003;58557;50.982;-3.222;2022-12-16T02:12:50;57;51;
70915;PMS5003;58557;50.982;-3.222;2022-12-16T02:15:18;57;43;
70915;PMS5003;58557;50.982;-3.222;2022-12-16T02:17:43;58;50;
70915;PMS5003;58557;50.982;-3.222;2022-12-16T02:20:10;47;38;
70915;PMS5003;58557;50.982;-3.222;2022-12-16T02:22:33;47;44;
70915;PMS5003;58557;50.982;-3.222;2022-12-16T02:25:02;59;53;
70915;PMS5003;58557;50.982;-3.222;2022-12-16T02:32:13;54;49;
70915;PMS5003;58557;50.982;-3.222;2022-12-16T02:34:40;46;40;
70915;PMS5003;58557;50.982;-3.222;2022-12-16T02:37:06;44;40;
70915;PMS5003;58557;50.982;-3.222;2022-12-16T02:39:30;46;39;
70915;PMS5003;58557;50.982;-3.222;2022-12-16T02:41:55;49;43;
70915;PMS5003;58557;50.982;-3.222;2022-12-16T02:44:19;52;40;
70915;PMS5003;58557;50.982;-3.222;2022-12-16T02:51:36;43;37;
70915;PMS5003;58557;50.982;-3.222;2022-12-16T02:54:01;43;37;
70915;PMS5003;58557;50.982;-3.222;2022-12-16T02:56:30;38;30;
70915;PMS5003;58557;50.982;-3.222;2022-12-16T02:58:53;34;31;
70915;PMS5003;58557;50.982;-3.222;2022-12-16T03:01:18;42;40;
70915;PMS5003;58557;50.982;-3.222;2022-12-16T03:03:44;34;26;
70915;PMS5003;58557;50.982;-3.222;2022-12-16T03:06:08;43;36;
70915;PMS5003;58557;50.982;-3.222;2022-12-16T03:08:34;40;39;
70915;PMS5003;58557;50.982;-3.222;2022-12-16T03:11:00;52;39;
70915;PMS5003;58557;50.982;-3.222;2022-12-16T03:13:25;44;39;
70915;PMS5003;58557;50.982;-3.222;2022-12-16T03:15:51;31;31;
70915;PMS5003;58557;50.982;-3.222;2022-12-16T03:18:15;44;39;
70915;PMS5003;58557;50.982;-3.222;2022-12-16T03:20:42;50;40;
70915;PMS5003;58557;50.982;-3.222;2022-12-16T03:23:07;41;31;
70915;PMS5003;58557;50.982;-3.222;2022-12-16T03:25:32;44;39;
70915;PMS5003;58557;50.982;-3.222;2022-12-16T03:27:59;39;31;
70915;PMS5003;58557;50.982;-3.222;2022-12-16T03:30:24;46;37;
70915;PMS5003;58557;50.982;-3.222;2022-12-16T03:32:49;46;40;
70915;PMS5003;58557;50.982;-3.222;2022-12-16T03:35:20;33;31;
70915;PMS5003;58557;50.982;-3.222;2022-12-16T03:37:39;43;40;
70915;PMS5003;58557;50.982;-3.222;2022-12-16T03:40:04;39;34;
70915;PMS5003;58557;50.982;-3.222;2022-12-16T03:42:30;43;34;
70915;PMS5003;58557;50.982;-3.222;2022-12-16T03:44:55;45;42;
70915;PMS5003;58557;50.982;-3.222;2022-12-16T03:47:20;42;35;
70915;PMS5003;58557;50.982;-3.222;2022-12-16T03:49:46;39;35;
70915;PMS5003;58557;50.982;-3.222;2022-12-16T03:52:11;42;36;
70915;PMS5003;58557;50.982;-3.222;2022-12-16T03:54:37;38;33;
70915;PMS5003;58557;50.982;-3.222;2022-12-16T03:57:03;39;38;
70915;PMS5003;58557;50.982;-3.222;2022-12-16T03:59:28;36;32;
70915;PMS5003;58557;50.982;-3.222;2022-12-16T04:01:53;40;38;
70915;PMS5003;58557;50.982;-3.222;2022-12-16T04:04:18;39;32;
70915;PMS5003;58557;50.982;-3.222;2022-12-16T04:06:44;34;32;
70915;PMS5003;58557;50.982;-3.222;2022-12-16T04:09:10;55;39;
70915;PMS5003;58557;50.982;-3.222;2022-12-16T04:11:36;40;32;
70915;PMS5003;58557;50.982;-3.222;2022-12-16T04:14:01;41;38;
70915;PMS5003;58557;50.982;-3.222;2022-12-16T04:16:28;45;39;
70915;PMS5003;58557;50.982;-3.222;2022-12-16T04:18:53;39;30;
70915;PMS5003;58557;50.982;-3.222;2022-12-16T04:21:18;56;50;
70915;PMS5003;58557;50.982;-3.222;2022-12-16T04:23:45;45;40;
70915;PMS5003;58557;50.982;-3.222;2022-12-16T04:26:09;46;39;
70915;PMS5003;58557;50.982;-3.222;2022-12-16T04:28:35;47;44;
70915;PMS5003;58557;50.982;-3.222;2022-12-16T04:31:00;51;40;
70915;PMS5003;58557;50.982;-3.222;2022-12-16T04:33:25;50;43;
70915;PMS5003;58557;50.982;-3.222;2022-12-16T04:35:51;53;39;
70915;PMS5003;58557;50.982;-3.222;2022-12-16T04:38:17;51;43;
70915;PMS5003;58557;50.982;-3.222;2022-12-16T04:40:43;46;43;
70915;PMS5003;58557;50.982;-3.222;2022-12-16T04:43:09;47;38;
70915;PMS5003;58557;50.982;-3.222;2022-12-16T04:45:34;43;36;
70915;PMS5003;58557;50.982;-3.222;2022-12-16T04:48:00;53;43;
70915;PMS5003;58557;50.982;-3.222;2022-12-16T04:50:26;42;34;
70915;PMS5003;58557;50.982;-3.222;2022-12-16T04:52:52;44;40;
70915;PMS5003;58557;50.982;-3.222;2022-12-16T04:55:17;65;46;
70915;PMS5003;58557;50.982;-3.222;2022-12-16T04:57:43;52;47;
70915;PMS5003;58557;50.982;-3.222;2022-12-16T05:00:08;52;46;
70915;PMS5003;58557;50.982;-3.222;2022-12-16T05:02:33;43;39;
70915;PMS5003;58557;50.982;-3.222;2022-12-16T05:04:59;53;48;
70915;PMS5003;58557;50.982;-3.222;2022-12-16T05:07:24;49;44;
70915;PMS5003;58557;50.982;-3.222;2022-12-16T05:09:49;50;45;
70915;PMS5003;58557;50.982;-3.222;2022-12-16T05:12:15;53;51;
70915;PMS5003;58557;50.982;-3.222;2022-12-16T05:14:40;50;45;
70915;PMS5003;58557;50.982;-3.222;2022-12-16T05:17:05;63;54;
70915;PMS5003;58557;50.982;-3.222;2022-12-16T05:19:31;57;51;
70915;PMS5003;58557;50.982;-3.222;2022-12-16T05:21:56;68;51;
70915;PMS5003;58557;50.982;-3.222;2022-12-16T05:24:22;60;55;
70915;PMS5003;58557;50.982;-3.222;2022-12-16T05:26:48;44;44;
70915;PMS5003;58557;50.982;-3.222;2022-12-16T05:29:13;73;58;
70915;PMS5003;58557;50.982;-3.222;2022-12-16T05:31:39;76;60;
70915;PMS5003;58557;50.982;-3.222;2022-12-16T05:34:04;71;61;
70915;PMS5003;58557;50.982;-3.222;2022-12-16T05:36:30;82;73;
70915;PMS5003;58557;50.982;-3.222;2022-12-16T05:38:55;63;54;
70915;PMS5003;58557;50.982;-3.222;2022-12-16T05:41:21;57;45;
70915;PMS5003;58557;50.982;-3.222;2022-12-16T05:43:47;60;48;
70915;PMS5003;58557;50.982;-3.222;2022-12-16T05:46:12;57;48;
70915;PMS5003;58557;50.982;-3.222;2022-12-16T05:48:38;51;45;
70915;PMS5003;58557;50.982;-3.222;2022-12-16T05:51:03;56;45;
70915;PMS5003;58557;50.982;-3.222;2022-12-16T05:53:28;57;45;
70915;PMS5003;58557;50.982;-3.222;2022-12-16T05:55:54;60;47;
70915;PMS5003;58557;50.982;-3.222;2022-12-16T05:58:19;54;48;
70915;PMS5003;58557;50.982;-3.222;2022-12-16T06:00:44;54;48;
70915;PMS5003;58557;50.982;-3.222;2022-12-16T06:03:09;57;53;
70915;PMS5003;58557;50.982;-3.222;2022-12-16T06:05:34;54;45;
70915;PMS5003;58557;50.982;-3.222;2022-12-16T06:08:00;50;44;
70915;PMS5003;58557;50.982;-3.222;2022-12-16T06:10:26;54;49;
70915;PMS5003;58557;50.982;-3.222;2022-12-16T06:12:51;51;44;
70915;PMS5003;58557;50.982;-3.222;2022-12-16T06:15:17;50;41;
70915;PMS5003;58557;50.982;-3.222;2022-12-16T06:17:45;62;53;
70915;PMS5003;58557;50.982;-3.222;2022-12-16T06:20:08;51;32;
70915;PMS5003;58557;50.982;-3.222;2022-12-16T06:22:33;57;49;
70915;PMS5003;58557;50.982;-3.222;2022-12-16T06:24:59;51;41;
70915;PMS5003;58557;50.982;-3.222;2022-12-16T06:27:24;45;41;
70915;PMS5003;58557;50.982;-3.222;2022-12-16T06:29:49;55;45;
70915;PMS5003;58557;50.982;-3.222;2022-12-16T06:32:15;51;46;
70915;PMS5003;58557;50.982;-3.222;2022-12-16T06:34:40;60;51;
70915;PMS5003;58557;50.982;-3.222;2022-12-16T06:37:05;51;39;
70915;PMS5003;58557;50.982;-3.222;2022-12-16T06:39:31;48;41;
70915;PMS5003;58557;50.982;-3.222;2022-12-16T06:41:57;50;39;
70915;PMS5003;58557;50.982;-3.222;2022-12-16T06:44:22;53;44;
70915;PMS5003;58557;50.982;-3.222;2022-12-16T06:46:48;57;53;
70915;PMS5003;58557;50.982;-3.222;2022-12-16T06:49:13;59;41;
70915;PMS5003;58557;50.982;-3.222;2022-12-16T06:51:39;63;48;
70915;PMS5003;58557;50.982;-3.222;2022-12-16T06:54:05;65;56;
70915;PMS5003;58557;50.982;-3.222;2022-12-16T06:56:31;53;47;
70915;PMS5003;58557;50.982;-3.222;2022-12-16T06:58:56;52;38;
70915;PMS5003;58557;50.982;-3.222;2022-12-16T07:01:22;58;49;
70915;PMS5003;58557;50.982;-3.222;2022-12-16T07:03:47;58;46;
70915;PMS5003;58557;50.982;-3.222;2022-12-16T07:06:12;52;44;
70915;PMS5003;58557;50.982;-3.222;2022-12-16T07:08:38;67;50;
70915;PMS5003;58557;50.982;-3.222;2022-12-16T07:11:03;58;46;
70915;PMS5003;58557;50.982;-3.222;2022-12-16T07:13:30;64;52;
70915;PMS5003;58557;50.982;-3.222;2022-12-16T07:15:55;53;47;
70915;PMS5003;58557;50.982;-3.222;2022-12-16T07:18:20;56;47;
70915;PMS5003;58557;50.982;-3.222;2022-12-16T07:20:45;55;46;
70915;PMS5003;58557;50.982;-3.222;2022-12-16T07:23:11;58;52;
70915;PMS5003;58557;50.982;-3.222;2022-12-16T07:25:36;59;50;
70915;PMS5003;58557;50.982;-3.222;2022-12-16T07:28:02;76;59;
70915;PMS5003;58557;50.982;-3.222;2022-12-16T07:30:27;67;56;
70915;PMS5003;58557;50.982;-3.222;2022-12-16T07:32:53;57;48;
70915;PMS5003;58557;50.982;-3.222;2022-12-16T07:35:18;50;40;
70915;PMS5003;58557;50.982;-3.222;2022-12-16T07:37:44;46;40;
70915;PMS5003;58557;50.982;-3.222;2022-12-16T07:40:09;59;47;
70915;PMS5003;58557;50.982;-3.222;2022-12-16T07:42:35;59;51;
70915;PMS5003;58557;50.982;-3.222;2022-12-16T07:45:00;63;47;
70915;PMS5003;58557;50.982;-3.222;2022-12-16T07:47:26;65;55;
70915;PMS5003;58557;50.982;-3.222;2022-12-16T07:49:51;77;60;
70915;PMS5003;58557;50.982;-3.222;2022-12-16T07:52:17;63;56;
70915;PMS5003;58557;50.982;-3.222;2022-12-16T07:54:42;64;51;
70915;PMS5003;58557;50.982;-3.222;2022-12-16T07:57:07;84;73;
70915;PMS5003;58557;50.982;-3.222;2022-12-16T07:59:33;77;67;
70915;PMS5003;58557;50.982;-3.222;2022-12-16T08:01:58;82;66;
70915;PMS5003;58557;50.982;-3.222;2022-12-16T08:04:24;72;60;
70915;PMS5003;58557;50.982;-3.222;2022-12-16T08:06:49;85;81;
70915;PMS5003;58557;50.982;-3.222;2022-12-16T08:09:15;91;72;
70915;PMS5003;58557;50.982;-3.222;2022-12-16T08:11:40;83;75;
70915;PMS5003;58557;50.982;-3.222;2022-12-16T08:14:05;83;67;
70915;PMS5003;58557;50.982;-3.222;2022-12-16T08:16:30;72;63;
70915;PMS5003;58557;50.982;-3.222;2022-12-16T08:18:55;73;66;
70915;PMS5003;58557;50.982;-3.222;2022-12-16T08:21:21;66;60;
70915;PMS5003;58557;50.982;-3.222;2022-12-16T08:23:46;80;61;
70915;PMS5003;58557;50.982;-3.222;2022-12-16T08:26:11;91;77;
70915;PMS5003;58557;50.982;-3.222;2022-12-16T08:28:37;85;70;
70915;PMS5003;58557;50.982;-3.222;2022-12-16T08:31:02;81;75;
70915;PMS5003;58557;50.982;-3.222;2022-12-16T08:33:27;96;80;
70915;PMS5003;58557;50.982;-3.222;2022-12-16T08:35:56;90;70;
70915;PMS5003;58557;50.982;-3.222;2022-12-16T08:38:19;102;86;
70915;PMS5003;58557;50.982;-3.222;2022-12-16T08:40:44;79;71;
70915;PMS5003;58557;50.982;-3.222;2022-12-16T08:43:10;104;87;
70915;PMS5003;58557;50.982;-3.222;2022-12-16T08:45:35;70;67;
70915;PMS5003;58557;50.982;-3.222;2022-12-16T08:48:01;77;70;
70915;PMS5003;58557;50.982;-3.222;2022-12-16T08:50:26;76;63;
70915;PMS5003;58557;50.982;-3.222;2022-12-16T08:52:51;70;63;
70915;PMS5003;58557;50.982;-3.222;2022-12-16T08:55:17;69;60;
70915;PMS5003;58557;50.982;-3.222;2022-12-16T08:57:42;65;52;
70915;PMS5003;58557;50.982;-3.222;2022-12-16T09:00:08;63;56;
70915;PMS5003;58557;50.982;-3.222;2022-12-16T09:02:33;68;56;
70915;PMS5003;58557;50.982;-3.222;2022-12-16T09:04:59;76;66;
70915;PMS5003;58557;50.982;-3.222;2022-12-16T09:07:25;59;54;
70915;PMS5003;58557;50.982;-3.222;2022-12-16T09:09:50;70;62;
70915;PMS5003;58557;50.982;-3.222;2022-12-16T09:12:15;66;51;
70915;PMS5003;58557;50.982;-3.222;2022-12-16T09:14:41;68;58;
70915;PMS5003;58557;50.982;-3.222;2022-12-16T09:17:06;70;62;
70915;PMS5003;58557;50.982;-3.222;2022-12-16T09:19:31;73;59;
70915;PMS5003;58557;50.982;-3.222;2022-12-16T09:21:57;66;60;
70915;PMS5003;58557;50.982;-3.222;2022-12-16T09:24:23;68;58;
70915;PMS5003;58557;50.982;-3.222;2022-12-16T09:26:49;65;54;
70915;PMS5003;58557;50.982;-3.222;2022-12-16T09:29:14;64;55;
70915;PMS5003;58557;50.982;-3.222;2022-12-16T09:31:40;76;62;
70915;PMS5003;58557;50.982;-3.222;2022-12-16T09:34:05;64;55;
70915;PMS5003;58557;50.982;-3.222;2022-12-16T09:36:30;63;57;
70915;PMS5003;58557;50.982;-3.222;2022-12-16T09:38:56;65;60;
70915;PMS5003;58557;50.982;-3.222;2022-12-16T09:41:26;62;57;
70915;PMS5003;58557;50.982;-3.222;2022-12-16T09:43:51;64;54;
70915;PMS5003;58557;50.982;-3.222;2022-12-16T09:46:14;55;49;
70915;PMS5003;58557;50.982;-3.222;2022-12-16T09:48:39;54;46;
70915;PMS5003;58557;50.982;-3.222;2022-12-16T09:51:04;51;46;
70915;PMS5003;58557;50.982;-3.222;2022-12-16T09:53:30;47;42;
70915;PMS5003;58557;50.982;-3.222;2022-12-16T09:55:55;69;54;
70915;PMS5003;58557;50.982;-3.222;2022-12-16T09:58:20;50;45;
70915;PMS5003;58557;50.982;-3.222;2022-12-16T10:00:46;55;42;
70915;PMS5003;58557;50.982;-3.222;2022-12-16T10:03:13;50;47;
70915;PMS5003;58557;50.982;-3.222;2022-12-16T10:05:38;54;44;
70915;PMS5003;58557;50.982;-3.222;2022-12-16T10:08:03;46;36;
70915;PMS5003;58557;50.982;-3.222;2022-12-16T10:10:28;48;46;
70915;PMS5003;58557;50.982;-3.222;2022-12-16T10:12:54;52;43;
70915;PMS5003;58557;50.982;-3.222;2022-12-16T10:15:21;41;39;
70915;PMS5003;58557;50.982;-3.222;2022-12-16T10:17:43;45;35;
70915;PMS5003;58557;50.982;-3.222;2022-12-16T10:20:11;54;47;
70915;PMS5003;58557;50.982;-3.222;2022-12-16T10:22:34;47;44;
70915;PMS5003;58557;50.982;-3.222;2022-12-16T10:24:59;61;51;
70915;PMS5003;58557;50.982;-3.222;2022-12-16T10:27:25;53;44;
70915;PMS5003;58557;50.982;-3.222;2022-12-16T10:29:49;51;43;
70915;PMS5003;58557;50.982;-3.222;2022-12-16T10:32:15;47;42;
70915;PMS5003;58557;50.982;-3.222;2022-12-16T10:34:41;57;46;
70915;PMS5003;58557;50.982;-3.222;2022-12-16T10:37:07;53;43;
70915;PMS5003;58557;50.982;-3.222;2022-12-16T10:39:32;54;45;
70915;PMS5003;58557;50.982;-3.222;2022-12-16T10:41:57;54;41;
70915;PMS5003;58557;50.982;-3.222;2022-12-16T10:44:23;59;53;
70915;PMS5003;58557;50.982;-3.222;2022-12-16T10:46:48;49;40;
70915;PMS5003;58557;50.982;-3.222;2022-12-16T10:49:14;49;43;
70915;PMS5003;58557;50.982;-3.222;2022-12-16T10:51:39;53;47;
70915;PMS5003;58557;50.982;-3.222;2022-12-16T10:56:46;52;49;
70915;PMS5003;58557;50.982;-3.222;2022-12-16T10:58:57;64;57;
70915;PMS5003;58557;50.982;-3.222;2022-12-16T11:01:21;68;61;
70915;PMS5003;58557;50.982;-3.222;2022-12-16T11:03:46;58;52;
70915;PMS5003;58557;50.982;-3.222;2022-12-16T11:06:14;65;61;
70915;PMS5003;58557;50.982;-3.222;2022-12-16T11:08:37;61;52;
70915;PMS5003;58557;50.982;-3.222;2022-12-16T11:11:03;75;60;
70915;PMS5003;58557;50.982;-3.222;2022-12-16T11:13:28;70;60;
70915;PMS5003;58557;50.982;-3.222;2022-12-16T11:18:20;69;60;
70915;PMS5003;58557;50.982;-3.222;2022-12-16T11:20:44;78;64;
70915;PMS5003;58557;50.982;-3.222;2022-12-16T11:23:15;74;60;
70915;PMS5003;58557;50.982;-3.222;2022-12-16T11:25:36;73;60;
70915;PMS5003;58557;50.982;-3.222;2022-12-16T11:28:02;60;58;
70915;PMS5003;58557;50.982;-3.222;2022-12-16T11:30:27;56;54;
70915;PMS5003;58557;50.982;-3.222;2022-12-16T11:32:53;57;49;
70915;PMS5003;58557;50.982;-3.222;2022-12-16T11:35:19;78;57;
70915;PMS5003;58557;50.982;-3.222;2022-12-16T11:37:43;64;56;
70915;PMS5003;58557;50.982;-3.222;2022-12-16T11:40:11;56;47;
70915;PMS5003;58557;50.982;-3.222;2022-12-16T11:42:34;58;47;
70915;PMS5003;58557;50.982;-3.222;2022-12-16T11:45:00;60;55;
70915;PMS5003;58557;50.982;-3.222;2022-12-16T11:47:29;57;53;
70915;PMS5003;58557;50.982;-3.222;2022-12-16T11:49:50;50;44;
70915;PMS5003;58557;50.982;-3.222;2022-12-16T11:52:17;48;41;
70915;PMS5003;58557;50.982;-3.222;2022-12-16T11:54:44;50;47;
70915;PMS5003;58557;50.982;-3.222;2022-12-16T11:57:13;44;42;
70915;PMS5003;58557;50.982;-3.222;2022-12-16T11:59:32;54;50;
70915;PMS5003;58557;50.982;-3.222;2022-12-16T12:01:58;50;46;
70915;PMS5003;58557;50.982;-3.222;2022-12-16T12:04:23;70;61;
70915;PMS5003;58557;50.982;-3.222;2022-12-16T12:06:54;62;59;
70915;PMS5003;58557;50.982;-3.222;2022-12-16T12:09:14;45;44;
70915;PMS5003;58557;50.982;-3.222;2022-12-16T12:11:40;35;35;
70915;PMS5003;58557;50.982;-3.222;2022-12-16T12:14:09;58;45;
70915;PMS5003;58557;50.982;-3.222;2022-12-16T12:16:32;48;40;
70915;PMS5003;58557;50.982;-3.222;2022-12-16T12:18:57;43;37;
70915;PMS5003;58557;50.982;-3.222;2022-12-16T12:21:22;55;50;
70915;PMS5003;58557;50.982;-3.222;2022-12-16T12:23:48;61;52;
70915;PMS5003;58557;50.982;-3.222;2022-12-16T12:26:13;57;53;
70915;PMS5003;58557;50.982;-3.222;2022-12-16T12:28:44;51;46;
70915;PMS5003;58557;50.982;-3.222;2022-12-16T12:31:05;55;47;
70915;PMS5003;58557;50.982;-3.222;2022-12-16T12:33:31;62;57;
70915;PMS5003;58557;50.982;-3.222;2022-12-16T12:35:56;63;47;
70915;PMS5003;58557;50.982;-3.222;2022-12-16T12:38:21;49;45;
70915;PMS5003;58557;50.982;-3.222;2022-12-16T12:40:47;52;52;
70915;PMS5003;58557;50.982;-3.222;2022-12-16T12:43:13;63;54;
70915;PMS5003;58557;50.982;-3.222;2022-12-16T12:45:43;62;59;
70915;PMS5003;58557;50.982;-3.222;2022-12-16T12:48:03;64;53;
70915;PMS5003;58557;50.982;-3.222;2022-12-16T12:50:28;59;53;
70915;PMS5003;58557;50.982;-3.222;2022-12-16T12:52:57;70;63;
70915;PMS5003;58557;50.982;-3.222;2022-12-16T12:55:20;73;65;
70915;PMS5003;58557;50.982;-3.222;2022-12-16T12:57:43;76;66;
70915;PMS5003;58557;50.982;-3.222;2022-12-16T13:00:13;68;60;
70915;PMS5003;58557;50.982;-3.222;2022-12-16T13:02:38;69;61;
70915;PMS5003;58557;50.982;-3.222;2022-12-16T13:05:00;70;65;
70915;PMS5003;58557;50.982;-3.222;2022-12-16T13:07:25;74;66;
70915;PMS5003;58557;50.982;-3.222;2022-12-16T13:12:21;79;66;
70915;PMS5003;58557;50.982;-3.222;2022-12-16T13:14:53;72;66;
70915;PMS5003;58557;50.982;-3.222;2022-12-16T13:17:07;58;52;
70915;PMS5003;58557;50.982;-3.222;2022-12-16T13:21:58;68;56;
70915;PMS5003;58557;50.982;-3.222;2022-12-16T13:24:28;68;58;
70915;PMS5003;58557;50.982;-3.222;2022-12-16T13:29:17;47;38;
70915;PMS5003;58557;50.982;-3.222;2022-12-16T13:31:41;38;33;
70915;PMS5003;58557;50.982;-3.222;2022-12-16T13:34:06;35;34;
70915;PMS5003;58557;50.982;-3.222;2022-12-16T13:36:32;44;36;
70915;PMS5003;58557;50.982;-3.222;2022-12-16T13:38:56;40;39;
70915;PMS5003;58557;50.982;-3.222;2022-12-16T13:43:47;38;36;
70915;PMS5003;58557;50.982;-3.222;2022-12-16T13:46:13;45;39;
70915;PMS5003;58557;50.982;-3.222;2022-12-16T13:48:38;52;47;
70915;PMS5003;58557;50.982;-3.222;2022-12-16T13:51:03;45;39;
70915;PMS5003;58557;50.982;-3.222;2022-12-16T13:53:29;29;29;
70915;PMS5003;58557;50.982;-3.222;2022-12-16T13:55:54;38;33;
70915;PMS5003;58557;50.982;-3.222;2022-12-16T13:58:22;41;34;
70915;PMS5003;58557;50.982;-3.222;2022-12-16T14:00:44;40;40;
70915;PMS5003;58557;50.982;-3.222;2022-12-16T14:03:10;39;36;
70915;PMS5003;58557;50.982;-3.222;2022-12-16T14:05:35;53;45;
70915;PMS5003;58557;50.982;-3.222;2022-12-16T14:08:01;48;43;
70915;PMS5003;58557;50.982;-3.222;2022-12-16T14:10:26;43;37;
70915;PMS5003;58557;50.982;-3.222;2022-12-16T14:12:53;53;51;
70915;PMS5003;58557;50.982;-3.222;2022-12-16T14:15:23;47;39;
70915;PMS5003;58557;50.982;-3.222;2022-12-16T14:17:43;44;39;
70915;PMS5003;58557;50.982;-3.222;2022-12-16T14:20:11;48;43;
70915;PMS5003;58557;50.982;-3.222;2022-12-16T14:22:47;41;39;
70915;PMS5003;58557;50.982;-3.222;2022-12-16T14:25:01;43;38;
70915;PMS5003;58557;50.982;-3.222;2022-12-16T14:27:24;42;37;
70915;PMS5003;58557;50.982;-3.222;2022-12-16T14:29:50;52;42;
70915;PMS5003;58557;50.982;-3.222;2022-12-16T14:32:17;58;51;
70915;PMS5003;58557;50.982;-3.222;2022-12-16T14:34:41;42;35;
70915;PMS5003;58557;50.982;-3.222;2022-12-16T14:37:11;47;37;
70915;PMS5003;58557;50.982;-3.222;2022-12-16T14:39:36;34;29;
70915;PMS5003;58557;50.982;-3.222;2022-12-16T14:41:57;32;32;
70915;PMS5003;58557;50.982;-3.222;2022-12-16T14:44:23;51;39;
70915;PMS5003;58557;50.982;-3.222;2022-12-16T14:46:49;36;30;
70915;PMS5003;58557;50.982;-3.222;2022-12-16T14:49:16;41;34;
70915;PMS5003;58557;50.982;-3.222;2022-12-16T14:51:44;41;34;
70915;PMS5003;58557;50.982;-3.222;2022-12-16T14:54:15;35;35;
70915;PMS5003;58557;50.982;-3.222;2022-12-16T14:56:30;35;31;
70915;PMS5003;58557;50.982;-3.222;2022-12-16T15:01:21;55;51;
70915;PMS5003;58557;50.982;-3.222;2022-12-16T15:03:47;62;51;
70915;PMS5003;58557;50.982;-3.222;2022-12-16T15:06:13;48;45;
70915;PMS5003;58557;50.982;-3.222;2022-12-16T15:08:39;41;37;
70915;PMS5003;58557;50.982;-3.222;2022-12-16T15:11:03;41;33;
70915;PMS5003;58557;50.982;-3.222;2022-12-16T15:13:28;49;46;
70915;PMS5003;58557;50.982;-3.222;2022-12-16T15:15:53;59;47;
70915;PMS5003;58557;50.982;-3.222;2022-12-16T15:18:19;47;41;
70915;PMS5003;58557;50.982;-3.222;2022-12-16T15:20:46;54;51;
70915;PMS5003;58557;50.982;-3.222;2022-12-16T15:23:18;54;45;
70915;PMS5003;58557;50.982;-3.222;2022-12-16T15:25:35;49;38;
70915;PMS5003;58557;50.982;-3.222;2022-12-16T15:28:01;56;47;
70915;PMS5003;58557;50.982;-3.222;2022-12-16T15:30:33;57;49;
70915;PMS5003;58557;50.982;-3.222;2022-12-16T15:32:52;49;44;
70915;PMS5003;58557;50.982;-3.222;2022-12-16T15:35:22;50;48;
70915;PMS5003;58557;50.982;-3.222;2022-12-16T15:37:42;49;45;
70915;PMS5003;58557;50.982;-3.222;2022-12-16T15:42:33;73;65;
70915;PMS5003;58557;50.982;-3.222;2022-12-16T15:44:59;73;66;
70915;PMS5003;58557;50.982;-3.222;2022-12-16T15:47:26;64;61;
70915;PMS5003;58557;50.982;-3.222;2022-12-16T15:49:50;70;62;
70915;PMS5003;58557;50.982;-3.222;2022-12-16T15:52:21;84;80;
70915;PMS5003;58557;50.982;-3.222;2022-12-16T15:54:48;64;59;
70915;PMS5003;58557;50.982;-3.222;2022-12-16T15:59:33;71;64;
70915;PMS5003;58557;50.982;-3.222;2022-12-16T16:01:57;75;71;
70915;PMS5003;58557;50.982;-3.222;2022-12-16T16:04:22;76;67;
70915;PMS5003;58557;50.982;-3.222;2022-12-16T16:06:48;91;77;
70915;PMS5003;58557;50.982;-3.222;2022-12-16T16:09:14;104;82;
70915;PMS5003;58557;50.982;-3.222;2022-12-16T16:11:39;103;87;
70915;PMS5003;58557;50.982;-3.222;2022-12-16T16:14:04;130;103;
70915;PMS5003;58557;50.982;-3.222;2022-12-16T16:16:30;95;83;
70915;PMS5003;58557;50.982;-3.222;2022-12-16T16:18:56;135;99;
70915;PMS5003;58557;50.982;-3.222;2022-12-16T16:21:21;104;94;